createdAt,value
2023-05-20T05:31:33.078Z,45.4154
2023-05-20T05:32:35.100Z,45.2408
2023-05-20T05:33:37.097Z,45.0362
2023-05-20T05:34:39.199Z,44.8254
2023-05-20T05:35:41.145Z,44.6277
2023-05-20T05:36:43.169Z,44.4408
2023-05-20T05:37:45.211Z,44.2715
2023-05-20T05:38:47.253Z,44.1177
2023-05-20T05:39:49.369Z,43.9746
2023-05-20T05:40:51.401Z,43.7977
2023-05-20T05:41:53.422Z,43.6608
2023-05-20T05:42:55.457Z,43.5215
2023-05-20T05:43:57.507Z,43.3546
2023-05-20T05:44:59.560Z,43.2038
2023-05-20T05:46:01.741Z,43.1292
2023-05-20T05:47:03.739Z,43.0338
2023-05-20T05:48:05.762Z,42.9308
2023-05-20T05:49:07.740Z,42.8585
2023-05-20T05:50:09.776Z,42.8146
2023-05-20T05:51:11.845Z,42.6723
2023-05-20T05:52:14.005Z,42.5992
2023-05-20T05:53:15.917Z,42.5085
2023-05-20T05:54:17.985Z,42.4785
2023-05-20T05:55:20.019Z,42.3931
2023-05-20T05:56:22.086Z,42.3277
2023-05-20T05:57:24.129Z,42.2377
2023-05-20T05:58:26.310Z,42.1815
2023-05-20T05:59:28.213Z,42.1346
2023-05-20T06:00:30.279Z,42.1423
2023-05-20T06:01:32.328Z,42.1915
2023-05-20T06:02:34.457Z,42.1800
2023-05-20T06:03:36.681Z,42.1123
2023-05-20T06:04:38.456Z,42.0408
2023-05-20T06:05:40.507Z,41.9646
2023-05-20T06:06:42.577Z,41.9546
2023-05-20T06:07:44.625Z,41.9515
2023-05-20T06:08:46.668Z,41.9023
2023-05-20T06:09:48.880Z,41.8931
2023-05-20T06:10:50.773Z,41.8877
2023-05-20T06:11:52.827Z,41.8500
2023-05-20T06:12:54.858Z,41.8000
2023-05-20T06:13:56.901Z,41.8115
2023-05-20T06:14:58.953Z,41.7985
2023-05-20T06:16:01.127Z,41.7938
2023-05-20T06:17:03.114Z,41.7931
2023-05-20T06:18:05.137Z,41.7392
2023-05-20T06:19:07.165Z,41.7285
2023-05-20T06:20:09.209Z,41.7038
2023-05-20T06:21:11.280Z,41.6654
2023-05-20T06:22:13.370Z,41.7123
2023-05-20T06:23:15.402Z,41.7015
2023-05-20T06:24:17.410Z,41.6762
2023-05-20T06:25:19.504Z,41.6692
2023-05-20T06:26:21.528Z,41.6431
2023-05-20T06:27:23.582Z,41.6546
2023-05-20T06:28:25.639Z,41.6846
2023-05-20T06:29:27.656Z,41.6962
2023-05-20T06:30:29.697Z,41.7715
2023-05-20T06:31:31.807Z,41.8108
2023-05-20T06:32:33.861Z,41.8292
2023-05-20T06:33:35.883Z,41.8608
2023-05-20T06:34:37.901Z,41.8869
2023-05-20T06:35:39.970Z,41.9046
2023-05-20T06:36:41.991Z,41.9315
2023-05-20T06:37:44.100Z,41.9700
2023-05-20T06:38:46.093Z,41.9646
2023-05-20T06:39:48.174Z,41.9954
2023-05-20T06:40:50.206Z,42.0838
2023-05-20T06:41:52.269Z,42.1246
2023-05-20T06:42:54.287Z,42.1577
2023-05-20T06:43:56.361Z,42.1892
2023-05-20T06:44:58.394Z,42.2077
2023-05-20T06:46:00.471Z,42.2754
2023-05-20T06:47:02.490Z,42.2954
2023-05-20T06:48:04.568Z,42.2854
2023-05-20T06:49:06.618Z,42.3523
2023-05-20T06:50:08.634Z,42.4077
2023-05-20T06:51:10.692Z,42.4785
2023-05-20T06:52:12.724Z,42.5115
2023-05-20T06:53:14.802Z,42.5315
2023-05-20T06:54:16.842Z,42.5585
2023-05-20T06:55:18.898Z,42.6231
2023-05-20T06:56:20.924Z,42.6777
2023-05-20T06:57:22.990Z,42.7092
2023-05-20T06:58:25.037Z,42.7415
2023-05-20T06:59:27.093Z,42.7154
2023-05-20T07:00:29.141Z,42.6985
2023-05-20T07:01:31.179Z,42.6562
2023-05-20T07:02:33.246Z,42.6246
2023-05-20T07:03:35.336Z,42.6500
2023-05-20T07:04:37.341Z,42.7408
2023-05-20T07:05:39.396Z,42.7808
2023-05-20T07:06:41.447Z,42.8262
2023-05-20T07:07:43.488Z,42.8915
2023-05-20T07:08:45.563Z,42.7915
2023-05-20T07:09:47.591Z,42.6962
2023-05-20T07:10:49.635Z,42.7392
2023-05-20T07:11:51.693Z,42.8008
2023-05-20T07:12:53.755Z,42.7992
2023-05-20T07:13:55.775Z,42.7700
2023-05-20T07:14:57.835Z,42.8092
2023-05-20T07:15:59.908Z,42.8115
2023-05-20T07:17:01.930Z,42.9777
2023-05-20T07:18:04.042Z,42.9985
2023-05-20T07:19:06.060Z,43.0285
2023-05-20T07:20:08.074Z,43.0069
2023-05-20T07:21:10.128Z,42.9538
2023-05-20T07:22:12.158Z,42.9915
2023-05-20T07:23:15.755Z,43.1562
2023-05-20T07:24:16.263Z,43.1908
2023-05-20T07:25:18.300Z,43.2408
2023-05-20T07:26:20.383Z,43.4785
2023-05-20T07:27:22.383Z,43.5515
2023-05-20T07:28:24.437Z,43.6631
2023-05-20T07:29:26.490Z,43.8554
2023-05-20T07:30:28.643Z,43.9523
2023-05-20T07:31:30.626Z,44.1546
2023-05-20T07:32:32.654Z,44.2562
2023-05-20T07:33:34.669Z,44.4592
2023-05-20T07:34:36.748Z,44.6223
2023-05-20T07:35:38.780Z,44.6277
2023-05-20T07:36:40.829Z,44.5577
2023-05-20T07:37:42.854Z,44.4700
2023-05-20T07:38:53.150Z,44.6908
2023-05-20T07:39:46.984Z,45.0085
2023-05-20T07:40:49.016Z,44.9638
2023-05-20T07:41:51.057Z,45.0669
2023-05-20T07:42:53.124Z,45.4423
2023-05-20T07:43:55.177Z,45.8115
2023-05-20T07:44:57.239Z,45.8700
2023-05-20T07:45:59.274Z,46.1792
2023-05-20T07:47:01.317Z,46.2777
2023-05-20T07:48:03.506Z,46.3077
2023-05-20T07:49:05.431Z,46.4408
2023-05-20T07:50:07.501Z,46.7962
2023-05-20T07:51:09.511Z,46.7977
2023-05-20T07:52:11.585Z,46.8738
2023-05-20T07:53:13.645Z,46.9723
2023-05-20T07:54:15.670Z,47.1285
2023-05-20T07:55:17.718Z,47.0500
2023-05-20T07:56:19.825Z,47.0554
2023-05-20T07:57:21.862Z,47.4754
2023-05-20T07:58:23.897Z,47.2508
2023-05-20T07:59:25.920Z,47.4115
2023-05-20T08:00:27.969Z,47.5546
2023-05-20T08:01:30.042Z,47.7300
2023-05-20T08:02:32.248Z,48.0285
2023-05-20T08:03:34.209Z,47.6900
2023-05-20T08:04:36.263Z,48.0146
2023-05-20T08:05:38.234Z,48.1777
2023-05-20T08:06:40.289Z,48.4877
2023-05-20T08:07:42.365Z,48.6646
2023-05-20T08:08:44.403Z,48.5469
2023-05-20T08:09:46.481Z,48.8562
2023-05-20T08:10:48.500Z,48.7446
2023-05-20T08:11:50.543Z,48.5308
2023-05-20T08:12:52.611Z,48.4962
2023-05-20T08:13:55.523Z,48.7292
2023-05-20T08:14:56.709Z,48.5862
2023-05-20T08:15:58.738Z,48.5854
2023-05-20T08:17:00.853Z,48.6877
2023-05-20T08:18:02.945Z,48.0538
2023-05-20T08:19:04.959Z,48.3931
2023-05-20T08:20:07.012Z,48.4431
2023-05-20T08:21:09.012Z,48.5977
2023-05-20T08:22:11.037Z,48.6569
2023-05-20T08:23:13.084Z,49.7831
2023-05-20T08:24:15.173Z,50.1762
2023-05-20T08:25:17.215Z,49.4823
2023-05-20T08:26:19.301Z,48.5831
2023-05-20T08:27:21.308Z,47.9554
2023-05-20T08:28:23.370Z,47.9215
2023-05-20T08:29:25.440Z,47.7538
2023-05-20T08:30:27.506Z,47.6762
2023-05-20T08:31:29.578Z,47.6123
2023-05-20T08:32:31.630Z,47.7731
2023-05-20T08:33:33.600Z,48.0846
2023-05-20T08:34:35.662Z,47.9008
2023-05-20T08:35:37.692Z,47.6100
2023-05-20T08:36:40.276Z,47.4823
2023-05-20T08:37:41.797Z,47.5485
2023-05-20T08:38:43.845Z,47.2085
2023-05-20T08:39:45.905Z,47.1369
2023-05-20T08:40:47.956Z,47.4031
2023-05-20T08:41:49.972Z,47.3331
2023-05-20T08:42:52.024Z,47.5254
2023-05-20T08:43:54.204Z,47.9985
2023-05-20T08:44:56.168Z,48.8885
2023-05-20T08:45:58.210Z,48.3385
2023-05-20T08:47:00.277Z,48.3977
2023-05-20T08:48:02.296Z,48.4362
2023-05-20T08:49:04.360Z,48.0808
2023-05-20T08:50:06.434Z,48.0177
2023-05-20T08:51:08.445Z,48.0454
2023-05-20T08:52:10.454Z,48.2038
2023-05-20T08:53:12.504Z,47.8592
2023-05-20T08:54:14.580Z,47.7654
2023-05-20T08:55:16.644Z,48.0277
2023-05-20T08:56:18.742Z,47.8585
2023-05-20T08:57:20.709Z,48.2000
2023-05-20T08:58:22.750Z,48.4492
2023-05-20T08:59:24.798Z,48.2692
2023-05-20T09:00:26.847Z,48.6754
2023-05-20T09:01:28.933Z,48.4262
2023-05-20T09:02:31.027Z,48.4862
2023-05-20T09:03:32.999Z,48.6115
2023-05-20T09:04:35.074Z,48.4500
2023-05-20T09:05:37.125Z,48.5454
2023-05-20T09:06:39.170Z,48.6231
2023-05-20T09:07:41.208Z,49.1323
2023-05-20T09:08:43.322Z,49.0354
2023-05-20T09:09:45.270Z,49.4631
2023-05-20T09:10:47.321Z,49.5377
2023-05-20T09:11:49.382Z,49.6908
2023-05-20T09:12:51.450Z,49.9162
2023-05-20T09:13:53.522Z,50.2346
2023-05-20T09:14:55.505Z,49.5315
2023-05-20T09:15:57.576Z,49.5377
2023-05-20T09:16:59.635Z,49.8569
2023-05-20T09:18:01.722Z,49.3054
2023-05-20T09:19:03.744Z,49.1323
2023-05-20T09:20:05.732Z,49.0508
2023-05-20T09:21:07.845Z,49.1838
2023-05-20T09:22:09.829Z,49.1385
2023-05-20T09:23:11.894Z,48.9923
2023-05-20T09:24:13.956Z,49.1800
2023-05-20T09:25:15.981Z,49.5146
2023-05-20T09:26:18.058Z,49.9062
2023-05-20T09:27:20.105Z,50.2131
2023-05-20T09:28:22.120Z,49.9808
2023-05-20T09:29:24.233Z,50.2738
2023-05-20T09:30:26.209Z,50.1377
2023-05-20T09:31:28.288Z,50.3338
2023-05-20T09:32:30.364Z,49.9515
2023-05-20T09:33:32.508Z,49.9962
2023-05-20T09:34:34.488Z,49.7608
2023-05-20T09:35:36.512Z,49.9192
2023-05-20T09:36:38.601Z,49.9277
2023-05-20T09:37:40.676Z,50.1146
2023-05-20T09:38:42.667Z,50.1300
2023-05-20T09:39:44.752Z,50.1631
2023-05-20T09:40:46.779Z,50.3600
2023-05-20T09:41:48.849Z,49.9915
2023-05-20T09:42:50.862Z,49.9062
2023-05-20T09:43:52.925Z,49.8731
2023-05-20T09:44:54.990Z,50.4954
2023-05-20T09:45:57.184Z,50.5169
2023-05-20T09:46:59.040Z,50.8823
2023-05-20T09:48:01.185Z,50.4369
2023-05-20T09:49:03.153Z,50.4954
2023-05-20T09:50:05.205Z,50.2831
2023-05-20T09:51:07.274Z,50.3277
2023-05-20T09:52:09.308Z,50.0177
2023-05-20T09:53:11.329Z,49.9538
2023-05-20T09:54:13.373Z,49.8300
2023-05-20T09:55:15.502Z,49.9315
2023-05-20T09:56:17.494Z,49.7877
2023-05-20T09:57:19.575Z,50.1854
2023-05-20T09:58:21.576Z,50.3131
2023-05-20T09:59:23.637Z,50.5092
2023-05-20T10:00:25.666Z,51.0631
2023-05-20T10:01:27.759Z,50.9546
2023-05-20T10:02:29.849Z,50.6415
2023-05-20T10:03:32.002Z,51.0331
2023-05-20T10:04:33.843Z,50.9931
2023-05-20T10:05:36.070Z,51.0538
2023-05-20T10:06:37.977Z,50.8492
2023-05-20T10:07:42.609Z,50.5246
2023-05-20T10:08:42.054Z,50.4215
2023-05-20T10:09:44.140Z,50.7562
2023-05-20T10:10:46.159Z,50.3023
2023-05-20T10:11:48.217Z,50.0962
2023-05-20T10:12:50.259Z,49.8508
2023-05-20T10:13:52.321Z,50.0223
2023-05-20T10:14:54.367Z,49.9538
2023-05-20T10:15:56.476Z,49.9315
2023-05-20T10:16:58.435Z,49.8077
2023-05-20T10:18:00.521Z,49.5369
2023-05-20T10:19:02.563Z,49.8015
2023-05-20T10:20:06.654Z,49.4846
2023-05-20T10:21:06.628Z,49.5146
2023-05-20T10:22:08.740Z,49.3177
2023-05-20T10:23:10.768Z,49.4592
2023-05-20T10:24:12.775Z,49.8331
2023-05-20T10:25:14.806Z,49.9077
2023-05-20T10:26:16.868Z,50.1908
2023-05-20T10:27:18.918Z,50.6808
2023-05-20T10:28:20.978Z,50.8492
2023-05-20T10:29:23.019Z,51.0446
2023-05-20T10:30:25.048Z,51.0431
2023-05-20T10:31:27.114Z,50.6238
2023-05-20T10:32:29.274Z,50.7754
2023-05-20T10:33:31.302Z,51.2646
2023-05-20T10:34:33.234Z,51.0700
2023-05-20T10:35:35.252Z,50.8815
2023-05-20T10:36:37.329Z,51.0085
2023-05-20T10:37:39.371Z,51.0354
2023-05-20T10:38:41.449Z,51.1654
2023-05-20T10:39:43.471Z,50.6069
2023-05-20T10:40:45.515Z,50.6392
2023-05-20T10:41:47.585Z,50.4985
2023-05-20T10:42:49.618Z,50.5462
2023-05-20T10:43:51.650Z,50.6408
2023-05-20T10:44:53.727Z,50.3023
2023-05-20T10:45:55.782Z,50.0977
2023-05-20T10:47:20.410Z,49.9477
2023-05-20T10:47:59.988Z,49.7392
2023-05-20T10:49:02.062Z,49.6900
2023-05-20T10:50:03.888Z,49.6708
2023-05-20T10:51:05.980Z,49.9200
2023-05-20T10:52:08.069Z,49.8023
2023-05-20T10:53:15.772Z,50.0454
2023-05-20T10:54:12.148Z,50.6415
2023-05-20T10:55:14.119Z,50.5869
2023-05-20T10:56:16.163Z,50.6531
2023-05-20T10:57:18.228Z,50.6054
2023-05-20T10:58:20.304Z,50.6600
2023-05-20T10:59:22.506Z,50.6200
2023-05-20T11:00:24.373Z,50.3238
2023-05-20T11:01:26.454Z,50.5838
2023-05-20T11:02:28.696Z,50.9000
2023-05-20T11:03:30.571Z,50.8277
2023-05-20T11:04:32.575Z,50.9669
2023-05-20T11:05:34.592Z,50.9838
2023-05-20T11:06:36.635Z,51.4477
2023-05-20T11:07:38.727Z,51.0100
2023-05-20T11:08:40.749Z,50.9077
2023-05-20T11:09:42.792Z,51.1754
2023-05-20T11:10:44.820Z,50.4308
2023-05-20T11:11:46.911Z,50.6100
2023-05-20T11:12:49.022Z,51.0754
2023-05-20T11:13:50.962Z,51.1085
2023-05-20T11:14:52.999Z,51.3385
2023-05-20T11:15:55.069Z,51.1392
2023-05-20T11:16:57.132Z,51.2877
2023-05-20T11:17:59.221Z,50.7892
2023-05-20T11:19:01.247Z,50.5292
2023-05-20T11:20:03.329Z,50.5800
2023-05-20T11:21:05.302Z,50.5792
2023-05-20T11:22:07.323Z,50.3392
2023-05-20T11:23:09.527Z,50.8238
2023-05-20T11:24:11.426Z,50.9077
2023-05-20T11:25:13.490Z,51.1592
2023-05-20T11:26:15.523Z,50.9108
2023-05-20T11:27:17.591Z,50.8423
2023-05-20T11:28:19.615Z,50.8762
2023-05-20T11:29:21.654Z,50.9392
2023-05-20T11:30:23.789Z,50.6038
2023-05-20T11:31:25.757Z,50.1869
2023-05-20T11:32:27.794Z,50.0831
2023-05-20T11:33:29.863Z,50.1431
2023-05-20T11:34:31.965Z,50.0015
2023-05-20T11:35:33.978Z,49.9692
2023-05-20T11:36:35.978Z,50.0715
2023-05-20T11:37:38.047Z,50.6615
2023-05-20T11:38:40.062Z,51.0277
2023-05-20T11:39:42.135Z,50.9031
2023-05-20T11:40:50.446Z,50.8077
2023-05-20T11:41:46.239Z,50.1046
2023-05-20T11:42:48.253Z,49.9200
2023-05-20T11:43:50.299Z,50.2731
2023-05-20T11:44:52.332Z,50.0331
2023-05-20T11:45:54.383Z,50.1908
2023-05-20T11:46:56.412Z,49.8800
2023-05-20T11:47:58.524Z,49.5154
2023-05-20T11:49:00.529Z,49.0154
2023-05-20T11:50:02.570Z,50.0200
2023-05-20T11:51:04.631Z,50.3962
2023-05-20T11:52:06.706Z,50.5608
2023-05-20T11:53:08.686Z,50.6138
2023-05-20T11:54:10.733Z,51.0292
2023-05-20T11:55:12.781Z,50.6808
2023-05-20T11:56:14.872Z,50.4677
2023-05-20T11:57:16.916Z,50.3777
2023-05-20T11:58:18.938Z,50.1892
2023-05-20T11:59:20.970Z,51.0562
2023-05-20T12:00:23.075Z,50.6069
2023-05-20T12:01:25.248Z,51.1492
2023-05-20T12:02:27.197Z,51.0723
2023-05-20T12:03:29.322Z,50.6485
2023-05-20T12:04:31.211Z,50.2908
2023-05-20T12:05:33.269Z,50.7208
2023-05-20T12:06:35.288Z,50.3038
2023-05-20T12:07:37.371Z,50.4685
2023-05-20T12:08:39.389Z,50.7531
2023-05-20T12:09:41.444Z,50.4785
2023-05-20T12:10:43.462Z,50.4115
2023-05-20T12:11:45.532Z,50.8477
2023-05-20T12:12:47.615Z,51.0300
2023-05-20T12:13:49.625Z,51.5885
2023-05-20T12:14:51.669Z,50.4000
2023-05-20T12:15:53.746Z,50.1177
2023-05-20T12:16:55.796Z,49.9715
2023-05-20T12:17:57.822Z,50.1831
2023-05-20T12:18:59.921Z,49.5862
2023-05-20T12:20:01.904Z,49.5008
2023-05-20T12:21:03.933Z,49.2977
2023-05-20T12:22:05.987Z,49.1585
2023-05-20T12:23:08.073Z,48.9862
2023-05-20T12:24:10.147Z,49.0162
2023-05-20T12:25:12.127Z,49.3846
2023-05-20T12:26:14.181Z,49.3646
2023-05-20T12:27:16.231Z,49.8831
2023-05-20T12:28:18.267Z,49.8392
2023-05-20T12:29:20.333Z,48.9869
2023-05-20T12:30:22.364Z,48.4377
2023-05-20T12:31:24.485Z,48.6762
2023-05-20T12:32:26.437Z,48.5777
2023-05-20T12:33:28.566Z,48.9923
2023-05-20T12:34:30.585Z,49.1546
2023-05-20T12:35:32.614Z,49.4600
2023-05-20T12:36:34.618Z,49.7900
2023-05-20T12:37:36.796Z,49.7315
2023-05-20T12:38:38.718Z,50.0231
2023-05-20T12:39:40.786Z,50.2123
2023-05-20T12:40:42.846Z,49.8631
2023-05-20T12:41:44.934Z,50.3023
2023-05-20T12:42:46.918Z,49.9969
2023-05-20T12:43:48.954Z,50.3685
2023-05-20T12:44:51.026Z,50.9785
2023-05-20T12:45:53.075Z,51.1054
2023-05-20T12:46:55.157Z,51.0531
2023-05-20T12:47:57.402Z,51.2769
2023-05-20T12:48:59.213Z,51.2915
2023-05-20T12:50:01.237Z,51.1669
2023-05-20T12:51:03.292Z,51.2731
2023-05-20T12:52:08.673Z,51.3592
2023-05-20T12:53:07.402Z,51.3377
2023-05-20T12:54:09.494Z,51.5531
2023-05-20T12:55:11.486Z,51.1708
2023-05-20T12:56:13.545Z,50.5031
2023-05-20T12:57:15.577Z,50.3862
2023-05-20T12:58:17.636Z,50.4769
2023-05-20T12:59:19.672Z,50.4285
2023-05-20T13:00:21.737Z,50.7700
2023-05-20T13:01:23.874Z,51.1008
2023-05-20T13:02:25.880Z,51.0838
2023-05-20T13:03:27.934Z,51.2908
2023-05-20T13:04:29.911Z,51.4077
2023-05-20T13:05:31.969Z,51.1969
2023-05-20T13:06:34.024Z,51.1338
2023-05-20T13:07:36.011Z,50.7523
2023-05-20T13:08:38.128Z,50.7069
2023-05-20T13:09:40.284Z,50.7246
2023-05-20T13:10:42.205Z,50.5862
2023-05-20T13:11:44.205Z,50.6731
2023-05-20T13:12:46.309Z,51.1846
2023-05-20T13:13:48.441Z,50.8900
2023-05-20T13:14:50.354Z,50.7100
2023-05-20T13:15:52.526Z,50.7492
2023-05-20T13:16:54.480Z,51.0223
2023-05-20T13:17:56.727Z,50.9431
2023-05-20T13:18:58.588Z,51.2669
2023-05-20T13:20:00.667Z,51.3862
2023-05-20T13:21:02.618Z,51.2085
2023-05-20T13:22:04.650Z,51.1431
2023-05-20T13:23:06.800Z,50.9523
2023-05-20T13:24:08.798Z,50.6192
2023-05-20T13:25:10.813Z,50.3046
2023-05-20T13:26:12.849Z,50.3338
2023-05-20T13:27:15.183Z,50.7877
2023-05-20T13:28:16.943Z,50.8062
2023-05-20T13:29:19.033Z,51.0169
2023-05-20T13:30:21.034Z,50.6069
2023-05-20T13:31:23.131Z,50.4177
2023-05-20T13:32:25.125Z,50.3392
2023-05-20T13:33:27.184Z,50.8108
2023-05-20T13:34:29.221Z,50.4054
2023-05-20T13:35:31.421Z,50.0808
2023-05-20T13:36:33.331Z,50.4262
2023-05-20T13:37:35.366Z,50.3654
2023-05-20T13:38:37.753Z,49.9846
2023-05-20T13:39:39.524Z,49.7846
2023-05-20T13:40:41.576Z,50.1377
2023-05-20T13:41:43.595Z,50.5331
2023-05-20T13:42:45.948Z,50.9254
2023-05-20T13:43:47.715Z,51.2262
2023-05-20T13:44:49.743Z,51.2408
2023-05-20T13:45:51.826Z,51.1354
2023-05-20T13:46:53.854Z,51.5754
2023-05-20T13:47:55.917Z,51.6538
2023-05-20T13:48:58.105Z,51.5677
2023-05-20T13:50:02.061Z,52.3077
2023-05-20T13:51:02.044Z,51.8677
2023-05-20T13:52:04.057Z,51.3769
2023-05-20T13:53:06.101Z,51.1477
2023-05-20T13:54:08.192Z,51.3515
2023-05-20T13:55:10.168Z,51.3292
2023-05-20T13:56:12.231Z,51.3831
2023-05-20T13:57:14.287Z,51.4323
2023-05-20T13:58:16.312Z,51.2138
2023-05-20T13:59:18.368Z,51.2892
2023-05-20T14:00:20.486Z,51.7723
2023-05-20T14:01:22.497Z,52.1269
2023-05-20T14:02:24.590Z,52.2485
2023-05-20T14:03:26.607Z,52.0131
2023-05-20T14:04:28.574Z,51.8838
2023-05-20T14:05:30.624Z,51.8015
2023-05-20T14:06:32.684Z,51.6354
2023-05-20T14:07:34.930Z,51.5100
2023-05-20T14:08:36.756Z,50.9492
2023-05-20T14:09:38.822Z,51.0062
2023-05-20T14:10:40.847Z,51.0269
2023-05-20T14:11:42.895Z,51.1800
2023-05-20T14:12:44.917Z,51.3162
2023-05-20T14:13:47.085Z,50.9277
2023-05-20T14:14:49.012Z,50.8200
2023-05-20T14:15:51.109Z,50.7100
2023-05-20T14:16:53.115Z,50.7908
2023-05-20T14:17:55.205Z,50.7862
2023-05-20T14:18:57.214Z,50.6900
2023-05-20T14:19:59.351Z,50.3777
2023-05-20T14:21:01.307Z,50.4638
2023-05-20T14:22:03.390Z,50.3285
2023-05-20T14:23:05.402Z,50.1885
2023-05-20T14:24:07.455Z,50.0931
2023-05-20T14:25:09.482Z,50.2154
2023-05-20T14:26:11.572Z,50.3308
2023-05-20T14:27:13.630Z,50.2415
2023-05-20T14:28:15.637Z,49.9785
2023-05-20T14:29:17.730Z,49.9669
2023-05-20T14:30:19.744Z,49.9808
2023-05-20T14:31:21.781Z,50.0385
2023-05-20T14:32:23.918Z,50.2662
2023-05-20T14:33:25.871Z,50.0731
2023-05-20T14:34:27.909Z,50.1323
2023-05-20T14:35:29.968Z,50.2146
2023-05-20T14:36:32.011Z,50.8362
2023-05-20T14:37:34.074Z,51.3108
2023-05-20T14:38:36.085Z,51.2431
2023-05-20T14:39:38.131Z,50.9677
2023-05-20T14:40:40.181Z,51.1592
2023-05-20T14:41:42.362Z,50.7838
2023-05-20T14:42:44.276Z,50.5762
2023-05-20T14:43:46.338Z,50.5946
2023-05-20T14:44:49.683Z,50.5762
2023-05-20T14:45:50.399Z,50.5992
2023-05-20T14:46:52.482Z,50.3769
2023-05-20T14:47:54.606Z,50.0923
2023-05-20T14:48:56.513Z,49.7708
2023-05-20T14:49:58.674Z,50.0200
2023-05-20T14:51:00.640Z,50.4138
2023-05-20T14:52:02.703Z,50.4692
2023-05-20T14:53:04.705Z,50.4577
2023-05-20T14:54:06.749Z,50.8662
2023-05-20T14:55:08.859Z,51.3531
2023-05-20T14:56:10.950Z,50.9269
2023-05-20T14:57:13.012Z,51.1269
2023-05-20T14:58:14.932Z,51.1892
2023-05-20T14:59:16.969Z,50.9985
2023-05-20T15:00:19.024Z,50.9638
2023-05-20T15:01:21.128Z,51.2738
2023-05-20T15:02:23.255Z,51.5731
2023-05-20T15:03:25.281Z,51.5862
2023-05-20T15:04:27.245Z,51.9415
2023-05-20T15:05:29.270Z,52.2754
2023-05-20T15:06:31.345Z,52.9631
2023-05-20T15:07:33.419Z,53.1831
2023-05-20T15:08:35.435Z,53.4908
2023-05-20T15:09:37.472Z,54.2354
2023-05-20T15:10:39.538Z,54.7115
2023-05-20T15:11:41.717Z,55.1592
2023-05-20T15:12:43.620Z,55.1723
2023-05-20T15:13:45.674Z,55.1385
2023-05-20T15:14:47.689Z,55.1077
2023-05-20T15:15:49.777Z,55.1023
2023-05-20T15:16:52.028Z,54.8723
2023-05-20T15:17:53.873Z,54.2623
2023-05-20T15:18:55.916Z,53.9062
2023-05-20T15:19:57.962Z,54.3462
2023-05-20T15:21:00.042Z,54.7623
2023-05-20T15:22:02.055Z,54.4200
2023-05-20T15:23:04.132Z,54.9208
2023-05-20T15:24:06.135Z,54.8923
2023-05-20T15:25:08.187Z,54.7654
2023-05-20T15:26:10.289Z,54.3754
2023-05-20T15:27:12.298Z,54.2185
2023-05-20T15:28:14.330Z,54.4600
2023-05-20T15:29:16.355Z,54.4046
2023-05-20T15:30:18.402Z,54.2046
2023-05-20T15:31:20.478Z,54.1192
2023-05-20T15:32:22.665Z,53.4985
2023-05-20T15:33:24.708Z,53.2738
2023-05-20T15:34:26.577Z,52.9508
2023-05-20T15:35:28.619Z,52.4646
2023-05-20T15:36:30.708Z,52.2408
2023-05-20T15:37:32.738Z,52.0000
2023-05-20T15:38:34.779Z,51.7362
2023-05-20T15:39:36.800Z,51.7408
2023-05-20T15:40:38.861Z,51.9377
2023-05-20T15:41:40.901Z,51.7108
2023-05-20T15:42:43.010Z,51.9462
2023-05-20T15:43:45.021Z,51.8400
2023-05-20T15:44:47.076Z,51.9369
2023-05-20T15:45:49.134Z,52.0938
